Vincentown, New Jersey
Current Conditions -  °F | °C
As of 11:54 PM on Saturday 22 Nov 2014 (Local Time) from KVAY Reporting Station
Overcast Overcast  
Wind Chill: 40°   Ceiling: 9500
Heat Index: 44°   Visibility: 10mi
Dew Point: 21°   Wind: 8mph
Humidity: 40%   Direction: 210°SSW
Pressure: 30.24"   Gusts: NA
Location:  39.93°N, 74.75°W
Report Text: KVAY 230454Z AUTO 21007KT 10SM BKN095 OVC120 07/M06 A3024 RMK AO2 SLP239 T00671061 400671072
Loading
Personal Weather Stations






























Interactive Weather Map New forecast layout! Learn more

10-Day Weather Forecast

Advertisements
Track Severe Weather on mobile